Airfield :
LOGIN :

Register | Disclaimer

   EN    FR    IT 

 










Legend :    VFR   Marginal VFR   IFR   Intensive IFR   Very Intensive IFR
Visi :
Ceiling :
>= 8 km
>= 3000ft
5 to 8 km
1000 to 3000 ft
1500m to 5 km
500 to 1000 ft
800 to 1500m
200 to 500 ft
< 800m
< 200 ft
Symbols :   Thunderstorms  Fog  Heavy snow  Heavy precipitations  Wind > 20 kt
SIGMETs :     Misc.  Thunderstorms  Icing  Turbulence  Mountain Waves  Volcanic Ashes






- Airport Elevation : 138 ft
- IATA code : BIO


LEBB - Bilbao

CURRENT METAR :
  • 251700Z 16010KT 120V190 CAVOK 14/07 Q1012 NOSIG

EXPIRED METARs :
  • 251630Z 17007KT 130V210 CAVOK 14/06 Q1012 NOSIG
  • 251600Z 15007KT 110V210 CAVOK 15/07 Q1012 NOSIG
  • 251530Z 13005KT 070V190 CAVOK 16/07 Q1012 NOSIG
  • 251500Z 14007KT 110V190 CAVOK 16/07 Q1012 NOSIG
  • 251430Z 15006KT 080V250 CAVOK 16/07 Q1012 NOSIG

TAF TAF LEBB
Valid from the 25 at 12:00 until the 26 at 12:00 UTC


251100Z 2512/2612 16010KT CAVOK TX16/2513Z TN07/2607Z
PROB30 2512/2514 22012G22KT
BECMG 2515/2518 10007KT
PROB40
TEMPO 2608/2612 18012G22KT



MET'MAP, your aeronautical weather chart ! - Copyright ORBIFLY December 2007 - Disclaimer

ORBIFLY MET'MAP TEAM :

Programming & Development : Alexandra Zaïnal
Concept & original design : Baudouin d'Aumeries
Assistance for programming : Marc-Olivier Méhu
Technical & hardware support : Manuel Goepfert

Contact : metmap@orbifly.com




SOURCES & CREDITS :

   NOAA